sensor_id;sensor_type;location;lat;lon;timestamp;P1;durP1;ratioP1;P2;durP2;ratioP2
8480;SDS011;4277;51.354;6.740;2022-10-22T00:01:16;8.30;;;3.80;;
8480;SDS011;4277;51.354;6.740;2022-10-22T00:03:44;5.60;;;4.23;;
8480;SDS011;4277;51.354;6.740;2022-10-22T00:06:10;10.13;;;4.50;;
8480;SDS011;4277;51.354;6.740;2022-10-22T00:08:36;5.93;;;3.90;;
8480;SDS011;4277;51.354;6.740;2022-10-22T00:11:11;11.33;;;4.63;;
8480;SDS011;4277;51.354;6.740;2022-10-22T00:13:38;8.03;;;4.30;;
8480;SDS011;4277;51.354;6.740;2022-10-22T00:16:04;6.87;;;4.13;;
8480;SDS011;4277;51.354;6.740;2022-10-22T00:18:30;7.07;;;4.23;;
8480;SDS011;4277;51.354;6.740;2022-10-22T00:20:56;8.63;;;3.80;;
8480;SDS011;4277;51.354;6.740;2022-10-22T00:23:22;8.03;;;4.37;;
8480;SDS011;4277;51.354;6.740;2022-10-22T00:25:47;9.23;;;4.60;;
8480;SDS011;4277;51.354;6.740;2022-10-22T00:28:13;8.40;;;4.17;;
8480;SDS011;4277;51.354;6.740;2022-10-22T00:30:42;7.27;;;4.37;;
8480;SDS011;4277;51.354;6.740;2022-10-22T00:33:08;6.70;;;4.60;;
8480;SDS011;4277;51.354;6.740;2022-10-22T00:35:34;7.47;;;4.63;;
8480;SDS011;4277;51.354;6.740;2022-10-22T00:38:00;4.97;;;3.80;;
8480;SDS011;4277;51.354;6.740;2022-10-22T00:40:25;5.33;;;3.90;;
8480;SDS011;4277;51.354;6.740;2022-10-22T00:42:52;10.60;;;3.93;;
8480;SDS011;4277;51.354;6.740;2022-10-22T00:45:25;7.47;;;3.97;;
8480;SDS011;4277;51.354;6.740;2022-10-22T00:50:27;10.27;;;4.93;;
8480;SDS011;4277;51.354;6.740;2022-10-22T00:52:54;8.17;;;4.50;;
8480;SDS011;4277;51.354;6.740;2022-10-22T00:55:22;8.77;;;4.43;;
8480;SDS011;4277;51.354;6.740;2022-10-22T00:57:48;14.53;;;4.30;;
8480;SDS011;4277;51.354;6.740;2022-10-22T01:00:16;8.60;;;4.20;;
8480;SDS011;4277;51.354;6.740;2022-10-22T01:02:43;8.33;;;4.33;;
8480;SDS011;4277;51.354;6.740;2022-10-22T01:05:09;8.63;;;4.57;;
8480;SDS011;4277;51.354;6.740;2022-10-22T01:07:37;11.77;;;4.63;;
8480;SDS011;4277;51.354;6.740;2022-10-22T01:15:23;10.20;;;4.73;;
8480;SDS011;4277;51.354;6.740;2022-10-22T01:17:54;7.63;;;4.63;;
8480;SDS011;4277;51.354;6.740;2022-10-22T01:25:34;5.23;;;4.20;;
8480;SDS011;4277;51.354;6.740;2022-10-22T01:28:08;8.03;;;4.07;;
8480;SDS011;4277;51.354;6.740;2022-10-22T01:30:37;9.80;;;4.30;;
8480;SDS011;4277;51.354;6.740;2022-10-22T01:33:04;9.43;;;5.10;;
8480;SDS011;4277;51.354;6.740;2022-10-22T01:35:36;9.43;;;4.80;;
8480;SDS011;4277;51.354;6.740;2022-10-22T01:38:03;11.73;;;5.30;;
8480;SDS011;4277;51.354;6.740;2022-10-22T01:40:32;8.63;;;4.20;;
8480;SDS011;4277;51.354;6.740;2022-10-22T01:43:01;9.67;;;5.30;;
8480;SDS011;4277;51.354;6.740;2022-10-22T01:45:27;7.60;;;4.70;;
8480;SDS011;4277;51.354;6.740;2022-10-22T01:55:52;8.53;;;5.03;;
8480;SDS011;4277;51.354;6.740;2022-10-22T02:04:12;7.80;;;4.60;;
8480;SDS011;4277;51.354;6.740;2022-10-22T02:06:40;11.47;;;5.33;;
8480;SDS011;4277;51.354;6.740;2022-10-22T02:09:08;7.37;;;4.73;;
8480;SDS011;4277;51.354;6.740;2022-10-22T02:11:34;8.47;;;4.63;;
8480;SDS011;4277;51.354;6.740;2022-10-22T02:14:02;7.67;;;4.33;;
8480;SDS011;4277;51.354;6.740;2022-10-22T02:16:32;7.70;;;4.60;;
8480;SDS011;4277;51.354;6.740;2022-10-22T02:19:00;13.10;;;4.90;;
8480;SDS011;4277;51.354;6.740;2022-10-22T02:21:26;7.90;;;5.07;;
8480;SDS011;4277;51.354;6.740;2022-10-22T02:23:52;8.23;;;4.83;;
8480;SDS011;4277;51.354;6.740;2022-10-22T02:26:41;8.43;;;4.93;;
8480;SDS011;4277;51.354;6.740;2022-10-22T02:29:06;7.83;;;4.80;;
8480;SDS011;4277;51.354;6.740;2022-10-22T02:31:34;8.50;;;4.90;;
8480;SDS011;4277;51.354;6.740;2022-10-22T02:34:02;7.77;;;5.00;;
8480;SDS011;4277;51.354;6.740;2022-10-22T02:36:32;7.70;;;4.37;;
8480;SDS011;4277;51.354;6.740;2022-10-22T02:39:00;7.33;;;4.77;;
8480;SDS011;4277;51.354;6.740;2022-10-22T02:41:26;11.77;;;5.07;;
8480;SDS011;4277;51.354;6.740;2022-10-22T02:43:53;6.87;;;4.80;;
8480;SDS011;4277;51.354;6.740;2022-10-22T02:46:19;8.23;;;4.37;;
8480;SDS011;4277;51.354;6.740;2022-10-22T02:48:45;7.97;;;4.30;;
8480;SDS011;4277;51.354;6.740;2022-10-22T02:51:12;9.43;;;4.07;;
8480;SDS011;4277;51.354;6.740;2022-10-22T02:53:38;10.67;;;4.57;;
8480;SDS011;4277;51.354;6.740;2022-10-22T02:56:04;8.70;;;4.60;;
8480;SDS011;4277;51.354;6.740;2022-10-22T02:58:30;10.87;;;4.90;;
8480;SDS011;4277;51.354;6.740;2022-10-22T03:00:57;9.80;;;4.80;;
8480;SDS011;4277;51.354;6.740;2022-10-22T03:03:23;12.63;;;4.47;;
8480;SDS011;4277;51.354;6.740;2022-10-22T03:05:50;9.63;;;5.20;;
8480;SDS011;4277;51.354;6.740;2022-10-22T03:08:16;12.10;;;4.97;;
8480;SDS011;4277;51.354;6.740;2022-10-22T03:10:42;9.53;;;4.70;;
8480;SDS011;4277;51.354;6.740;2022-10-22T03:13:10;9.03;;;4.63;;
8480;SDS011;4277;51.354;6.740;2022-10-22T03:15:38;6.67;;;5.37;;
8480;SDS011;4277;51.354;6.740;2022-10-22T03:18:04;6.73;;;4.50;;
8480;SDS011;4277;51.354;6.740;2022-10-22T03:20:30;9.77;;;4.90;;
8480;SDS011;4277;51.354;6.740;2022-10-22T03:22:56;9.77;;;5.23;;
8480;SDS011;4277;51.354;6.740;2022-10-22T03:25:24;7.63;;;4.43;;
8480;SDS011;4277;51.354;6.740;2022-10-22T03:27:51;7.53;;;4.70;;
8480;SDS011;4277;51.354;6.740;2022-10-22T03:30:18;8.83;;;4.70;;
8480;SDS011;4277;51.354;6.740;2022-10-22T03:32:44;7.20;;;5.10;;
8480;SDS011;4277;51.354;6.740;2022-10-22T03:35:10;8.67;;;5.23;;
8480;SDS011;4277;51.354;6.740;2022-10-22T03:37:36;13.90;;;5.40;;
8480;SDS011;4277;51.354;6.740;2022-10-22T03:40:03;13.33;;;5.60;;
8480;SDS011;4277;51.354;6.740;2022-10-22T03:42:30;9.10;;;4.73;;
8480;SDS011;4277;51.354;6.740;2022-10-22T03:44:56;9.83;;;5.13;;
8480;SDS011;4277;51.354;6.740;2022-10-22T03:47:22;9.23;;;4.67;;
8480;SDS011;4277;51.354;6.740;2022-10-22T03:49:48;5.57;;;5.07;;
8480;SDS011;4277;51.354;6.740;2022-10-22T03:52:14;8.67;;;5.37;;
8480;SDS011;4277;51.354;6.740;2022-10-22T03:54:40;8.13;;;5.33;;
8480;SDS011;4277;51.354;6.740;2022-10-22T03:57:06;11.90;;;5.53;;
8480;SDS011;4277;51.354;6.740;2022-10-22T03:59:36;7.03;;;4.57;;
8480;SDS011;4277;51.354;6.740;2022-10-22T04:02:02;7.80;;;5.10;;
8480;SDS011;4277;51.354;6.740;2022-10-22T04:04:29;7.80;;;5.30;;
8480;SDS011;4277;51.354;6.740;2022-10-22T04:06:55;12.00;;;5.53;;
8480;SDS011;4277;51.354;6.740;2022-10-22T04:09:21;10.93;;;4.97;;
8480;SDS011;4277;51.354;6.740;2022-10-22T04:11:47;12.37;;;6.40;;
8480;SDS011;4277;51.354;6.740;2022-10-22T04:14:13;10.20;;;5.67;;
8480;SDS011;4277;51.354;6.740;2022-10-22T04:16:39;8.63;;;5.40;;
8480;SDS011;4277;51.354;6.740;2022-10-22T04:19:05;9.17;;;5.83;;
8480;SDS011;4277;51.354;6.740;2022-10-22T04:21:32;10.17;;;5.40;;
8480;SDS011;4277;51.354;6.740;2022-10-22T04:23:58;11.63;;;5.70;;
8480;SDS011;4277;51.354;6.740;2022-10-22T04:26:24;13.30;;;6.50;;
8480;SDS011;4277;51.354;6.740;2022-10-22T04:28:50;8.60;;;6.00;;
8480;SDS011;4277;51.354;6.740;2022-10-22T04:31:18;9.83;;;5.40;;
8480;SDS011;4277;51.354;6.740;2022-10-22T04:33:44;12.40;;;6.17;;
8480;SDS011;4277;51.354;6.740;2022-10-22T04:36:12;8.73;;;6.10;;
8480;SDS011;4277;51.354;6.740;2022-10-22T04:38:40;9.37;;;5.87;;
8480;SDS011;4277;51.354;6.740;2022-10-22T04:41:07;12.17;;;5.80;;
8480;SDS011;4277;51.354;6.740;2022-10-22T04:43:33;11.07;;;6.10;;
8480;SDS011;4277;51.354;6.740;2022-10-22T04:45:59;9.37;;;6.20;;
8480;SDS011;4277;51.354;6.740;2022-10-22T04:48:25;14.50;;;6.73;;
8480;SDS011;4277;51.354;6.740;2022-10-22T04:50:51;10.63;;;5.90;;
8480;SDS011;4277;51.354;6.740;2022-10-22T04:53:17;9.20;;;6.87;;
8480;SDS011;4277;51.354;6.740;2022-10-22T04:55:43;9.30;;;6.23;;
8480;SDS011;4277;51.354;6.740;2022-10-22T04:58:09;7.70;;;5.80;;
8480;SDS011;4277;51.354;6.740;2022-10-22T05:00:35;8.63;;;5.83;;
8480;SDS011;4277;51.354;6.740;2022-10-22T05:03:01;8.10;;;5.93;;
8480;SDS011;4277;51.354;6.740;2022-10-22T05:05:27;9.17;;;5.97;;
8480;SDS011;4277;51.354;6.740;2022-10-22T05:07:53;13.93;;;6.57;;
8480;SDS011;4277;51.354;6.740;2022-10-22T05:10:19;8.33;;;5.67;;
8480;SDS011;4277;51.354;6.740;2022-10-22T05:12:44;10.43;;;6.40;;
8480;SDS011;4277;51.354;6.740;2022-10-22T05:15:10;10.63;;;5.80;;
8480;SDS011;4277;51.354;6.740;2022-10-22T05:17:36;16.07;;;7.00;;
8480;SDS011;4277;51.354;6.740;2022-10-22T05:20:03;10.33;;;7.40;;
8480;SDS011;4277;51.354;6.740;2022-10-22T05:22:29;10.03;;;6.53;;
8480;SDS011;4277;51.354;6.740;2022-10-22T05:24:55;12.53;;;7.57;;
8480;SDS011;4277;51.354;6.740;2022-10-22T05:27:21;9.17;;;5.97;;
8480;SDS011;4277;51.354;6.740;2022-10-22T05:29:47;9.00;;;6.60;;
8480;SDS011;4277;51.354;6.740;2022-10-22T05:32:13;12.23;;;7.00;;
8480;SDS011;4277;51.354;6.740;2022-10-22T05:34:39;11.33;;;7.33;;
8480;SDS011;4277;51.354;6.740;2022-10-22T05:37:04;10.50;;;7.47;;
8480;SDS011;4277;51.354;6.740;2022-10-22T05:39:30;13.87;;;6.63;;
8480;SDS011;4277;51.354;6.740;2022-10-22T05:42:00;7.70;;;6.43;;
8480;SDS011;4277;51.354;6.740;2022-10-22T05:44:26;11.30;;;6.97;;
8480;SDS011;4277;51.354;6.740;2022-10-22T05:46:51;11.07;;;7.33;;
8480;SDS011;4277;51.354;6.740;2022-10-22T05:49:17;11.67;;;6.63;;
8480;SDS011;4277;51.354;6.740;2022-10-22T05:51:42;13.00;;;7.73;;
8480;SDS011;4277;51.354;6.740;2022-10-22T05:54:13;12.53;;;8.53;;
8480;SDS011;4277;51.354;6.740;2022-10-22T05:56:43;13.97;;;8.50;;
8480;SDS011;4277;51.354;6.740;2022-10-22T05:59:10;11.13;;;6.80;;
8480;SDS011;4277;51.354;6.740;2022-10-22T06:01:37;12.93;;;8.00;;
8480;SDS011;4277;51.354;6.740;2022-10-22T06:04:04;12.60;;;7.57;;
8480;SDS011;4277;51.354;6.740;2022-10-22T06:09:12;12.67;;;8.30;;
8480;SDS011;4277;51.354;6.740;2022-10-22T06:11:57;10.50;;;7.87;;
8480;SDS011;4277;51.354;6.740;2022-10-22T06:14:23;13.30;;;8.50;;
8480;SDS011;4277;51.354;6.740;2022-10-22T06:16:49;16.23;;;8.90;;
8480;SDS011;4277;51.354;6.740;2022-10-22T06:19:16;10.93;;;8.93;;
8480;SDS011;4277;51.354;6.740;2022-10-22T06:21:43;13.23;;;8.50;;
8480;SDS011;4277;51.354;6.740;2022-10-22T06:24:10;15.13;;;8.50;;
8480;SDS011;4277;51.354;6.740;2022-10-22T06:26:36;16.27;;;9.03;;
8480;SDS011;4277;51.354;6.740;2022-10-22T06:29:02;17.73;;;8.90;;
8480;SDS011;4277;51.354;6.740;2022-10-22T06:31:27;20.30;;;8.83;;
8480;SDS011;4277;51.354;6.740;2022-10-22T06:33:54;13.97;;;8.07;;
8480;SDS011;4277;51.354;6.740;2022-10-22T06:36:21;13.57;;;8.23;;
8480;SDS011;4277;51.354;6.740;2022-10-22T06:38:51;16.70;;;8.77;;
8480;SDS011;4277;51.354;6.740;2022-10-22T06:41:18;14.00;;;8.17;;
8480;SDS011;4277;51.354;6.740;2022-10-22T06:43:44;13.97;;;8.57;;
8480;SDS011;4277;51.354;6.740;2022-10-22T06:46:17;13.57;;;7.73;;
8480;SDS011;4277;51.354;6.740;2022-10-22T06:48:47;13.23;;;7.57;;
8480;SDS011;4277;51.354;6.740;2022-10-22T06:51:14;10.60;;;7.40;;
8480;SDS011;4277;51.354;6.740;2022-10-22T06:53:40;10.03;;;7.20;;
8480;SDS011;4277;51.354;6.740;2022-10-22T06:56:09;12.90;;;7.33;;
8480;SDS011;4277;51.354;6.740;2022-10-22T06:58:37;10.97;;;7.23;;
8480;SDS011;4277;51.354;6.740;2022-10-22T07:01:04;13.37;;;7.00;;
8480;SDS011;4277;51.354;6.740;2022-10-22T07:03:34;9.80;;;6.47;;
8480;SDS011;4277;51.354;6.740;2022-10-22T07:06:04;11.07;;;6.10;;
8480;SDS011;4277;51.354;6.740;2022-10-22T07:08:32;11.63;;;6.20;;
8480;SDS011;4277;51.354;6.740;2022-10-22T07:11:08;11.67;;;6.00;;
8480;SDS011;4277;51.354;6.740;2022-10-22T07:13:34;10.27;;;5.00;;
8480;SDS011;4277;51.354;6.740;2022-10-22T07:16:01;9.23;;;4.70;;
8480;SDS011;4277;51.354;6.740;2022-10-22T07:18:27;9.63;;;4.93;;
8480;SDS011;4277;51.354;6.740;2022-10-22T07:20:53;6.93;;;4.40;;
8480;SDS011;4277;51.354;6.740;2022-10-22T07:23:18;7.90;;;4.30;;
8480;SDS011;4277;51.354;6.740;2022-10-22T07:25:44;8.60;;;4.13;;
8480;SDS011;4277;51.354;6.740;2022-10-22T07:28:09;7.47;;;3.90;;
8480;SDS011;4277;51.354;6.740;2022-10-22T07:30:36;10.77;;;3.70;;
8480;SDS011;4277;51.354;6.740;2022-10-22T07:33:03;8.70;;;3.60;;
8480;SDS011;4277;51.354;6.740;2022-10-22T07:35:29;8.73;;;3.67;;
8480;SDS011;4277;51.354;6.740;2022-10-22T07:37:54;6.97;;;3.60;;
8480;SDS011;4277;51.354;6.740;2022-10-22T07:40:20;4.80;;;3.17;;
8480;SDS011;4277;51.354;6.740;2022-10-22T07:42:46;7.47;;;3.37;;
8480;SDS011;4277;51.354;6.740;2022-10-22T07:45:11;7.23;;;3.37;;
8480;SDS011;4277;51.354;6.740;2022-10-22T07:47:37;8.40;;;3.30;;
8480;SDS011;4277;51.354;6.740;2022-10-22T07:50:02;5.90;;;3.10;;
8480;SDS011;4277;51.354;6.740;2022-10-22T07:52:30;8.73;;;3.40;;
8480;SDS011;4277;51.354;6.740;2022-10-22T07:54:55;4.83;;;2.80;;
8480;SDS011;4277;51.354;6.740;2022-10-22T07:57:21;8.43;;;3.37;;
8480;SDS011;4277;51.354;6.740;2022-10-22T07:59:46;9.73;;;3.20;;
8480;SDS011;4277;51.354;6.740;2022-10-22T08:02:12;7.03;;;2.97;;
8480;SDS011;4277;51.354;6.740;2022-10-22T08:04:37;8.13;;;2.77;;
8480;SDS011;4277;51.354;6.740;2022-10-22T08:07:04;9.93;;;3.00;;
8480;SDS011;4277;51.354;6.740;2022-10-22T08:09:30;7.93;;;2.97;;
8480;SDS011;4277;51.354;6.740;2022-10-22T08:11:55;9.47;;;2.90;;
8480;SDS011;4277;51.354;6.740;2022-10-22T08:14:21;8.03;;;2.83;;
8480;SDS011;4277;51.354;6.740;2022-10-22T08:16:46;7.60;;;2.90;;
8480;SDS011;4277;51.354;6.740;2022-10-22T08:19:12;6.97;;;2.43;;
8480;SDS011;4277;51.354;6.740;2022-10-22T08:21:38;5.90;;;2.90;;
8480;SDS011;4277;51.354;6.740;2022-10-22T08:24:04;7.73;;;2.50;;
8480;SDS011;4277;51.354;6.740;2022-10-22T08:26:30;9.80;;;3.20;;
8480;SDS011;4277;51.354;6.740;2022-10-22T08:28:56;6.50;;;2.33;;
8480;SDS011;4277;51.354;6.740;2022-10-22T08:31:21;5.80;;;2.70;;
8480;SDS011;4277;51.354;6.740;2022-10-22T08:33:47;10.90;;;3.00;;
8480;SDS011;4277;51.354;6.740;2022-10-22T08:36:12;6.57;;;2.60;;
8480;SDS011;4277;51.354;6.740;2022-10-22T08:38:38;6.90;;;2.50;;
8480;SDS011;4277;51.354;6.740;2022-10-22T08:41:14;6.77;;;2.67;;
8480;SDS011;4277;51.354;6.740;2022-10-22T08:43:48;7.33;;;2.20;;
8480;SDS011;4277;51.354;6.740;2022-10-22T08:46:26;7.47;;;2.40;;
8480;SDS011;4277;51.354;6.740;2022-10-22T08:49:19;7.57;;;2.30;;
8480;SDS011;4277;51.354;6.740;2022-10-22T08:51:50;7.53;;;2.50;;
8480;SDS011;4277;51.354;6.740;2022-10-22T08:54:20;7.13;;;2.30;;
8480;SDS011;4277;51.354;6.740;2022-10-22T08:56:49;6.93;;;2.53;;
8480;SDS011;4277;51.354;6.740;2022-10-22T08:59:26;4.73;;;2.10;;
8480;SDS011;4277;51.354;6.740;2022-10-22T09:05:01;5.23;;;2.00;;
8480;SDS011;4277;51.354;6.740;2022-10-22T09:07:44;5.63;;;1.87;;
8480;SDS011;4277;51.354;6.740;2022-10-22T09:10:14;6.13;;;2.13;;
8480;SDS011;4277;51.354;6.740;2022-10-22T09:12:46;5.67;;;2.00;;
8480;SDS011;4277;51.354;6.740;2022-10-22T09:15:13;6.73;;;2.20;;
8480;SDS011;4277;51.354;6.740;2022-10-22T09:17:46;8.23;;;1.97;;
8480;SDS011;4277;51.354;6.740;2022-10-22T09:20:27;5.10;;;2.13;;
8480;SDS011;4277;51.354;6.740;2022-10-22T09:25:58;7.00;;;1.87;;
8480;SDS011;4277;51.354;6.740;2022-10-22T09:28:24;7.67;;;2.10;;
8480;SDS011;4277;51.354;6.740;2022-10-22T09:30:49;7.57;;;2.10;;
8480;SDS011;4277;51.354;6.740;2022-10-22T09:33:16;6.50;;;1.90;;
8480;SDS011;4277;51.354;6.740;2022-10-22T09:35:56;7.60;;;1.90;;
8480;SDS011;4277;51.354;6.740;2022-10-22T09:38:29;6.40;;;1.70;;
8480;SDS011;4277;51.354;6.740;2022-10-22T09:40:57;8.03;;;2.07;;
8480;SDS011;4277;51.354;6.740;2022-10-22T09:43:24;9.07;;;1.90;;
8480;SDS011;4277;51.354;6.740;2022-10-22T09:45:57;6.67;;;2.03;;
8480;SDS011;4277;51.354;6.740;2022-10-22T09:48:28;7.23;;;1.70;;
8480;SDS011;4277;51.354;6.740;2022-10-22T09:53:42;7.20;;;1.60;;
8480;SDS011;4277;51.354;6.740;2022-10-22T09:56:26;5.90;;;1.73;;
8480;SDS011;4277;51.354;6.740;2022-10-22T09:58:57;8.57;;;2.13;;
8480;SDS011;4277;51.354;6.740;2022-10-22T10:01:24;9.23;;;1.93;;
8480;SDS011;4277;51.354;6.740;2022-10-22T10:04:01;4.20;;;1.67;;
8480;SDS011;4277;51.354;6.740;2022-10-22T10:06:29;3.57;;;1.33;;
8480;SDS011;4277;51.354;6.740;2022-10-22T10:08:56;6.20;;;1.50;;
8480;SDS011;4277;51.354;6.740;2022-10-22T10:11:27;6.00;;;1.83;;
8480;SDS011;4277;51.354;6.740;2022-10-22T10:24:47;9.23;;;1.60;;
8480;SDS011;4277;51.354;6.740;2022-10-22T10:27:29;7.23;;;1.40;;
8480;SDS011;4277;51.354;6.740;2022-10-22T10:30:02;6.00;;;1.60;;
8480;SDS011;4277;51.354;6.740;2022-10-22T10:32:48;4.47;;;1.27;;
8480;SDS011;4277;51.354;6.740;2022-10-22T10:41:03;7.17;;;1.70;;
8480;SDS011;4277;51.354;6.740;2022-10-22T10:46:25;9.57;;;4.57;;
8480;SDS011;4277;51.354;6.740;2022-10-22T10:49:09;7.37;;;2.40;;
8480;SDS011;4277;51.354;6.740;2022-10-22T10:51:49;7.50;;;2.10;;
8480;SDS011;4277;51.354;6.740;2022-10-22T10:54:30;5.10;;;1.60;;
8480;SDS011;4277;51.354;6.740;2022-10-22T10:57:12;5.30;;;1.90;;
8480;SDS011;4277;51.354;6.740;2022-10-22T11:00:04;7.20;;;1.60;;
8480;SDS011;4277;51.354;6.740;2022-10-22T11:05:30;4.40;;;1.40;;
8480;SDS011;4277;51.354;6.740;2022-10-22T11:13:21;6.88;;;1.77;;
8480;SDS011;4277;51.354;6.740;2022-10-22T11:16:16;4.83;;;1.50;;
8480;SDS011;4277;51.354;6.740;2022-10-22T11:18:47;6.47;;;1.23;;
8480;SDS011;4277;51.354;6.740;2022-10-22T11:21:26;4.10;;;1.33;;
8480;SDS011;4277;51.354;6.740;2022-10-22T11:26:47;6.57;;;1.75;;
8480;SDS011;4277;51.354;6.740;2022-10-22T11:29:21;3.77;;;1.20;;
8480;SDS011;4277;51.354;6.740;2022-10-22T11:31:50;3.40;;;1.13;;
8480;SDS011;4277;51.354;6.740;2022-10-22T11:34:25;5.40;;;1.48;;
8480;SDS011;4277;51.354;6.740;2022-10-22T11:36:56;3.65;;;1.33;;
8480;SDS011;4277;51.354;6.740;2022-10-22T11:39:38;4.13;;;1.27;;
8480;SDS011;4277;51.354;6.740;2022-10-22T11:42:20;7.32;;;3.28;;
8480;SDS011;4277;51.354;6.740;2022-10-22T11:48:04;5.38;;;1.52;;
8480;SDS011;4277;51.354;6.740;2022-10-22T11:53:50;5.25;;;1.20;;
8480;SDS011;4277;51.354;6.740;2022-10-22T12:08:37;5.13;;;1.25;;
8480;SDS011;4277;51.354;6.740;2022-10-22T12:13:50;5.90;;;1.27;;
8480;SDS011;4277;51.354;6.740;2022-10-22T12:19:16;3.20;;;1.10;;
8480;SDS011;4277;51.354;6.740;2022-10-22T12:22:10;4.83;;;1.37;;
8480;SDS011;4277;51.354;6.740;2022-10-22T12:24:42;4.40;;;1.23;;
8480;SDS011;4277;51.354;6.740;2022-10-22T12:27:20;5.70;;;1.33;;
8480;SDS011;4277;51.354;6.740;2022-10-22T12:29:58;3.10;;;1.13;;
8480;SDS011;4277;51.354;6.740;2022-10-22T12:32:35;4.43;;;1.10;;
8480;SDS011;4277;51.354;6.740;2022-10-22T12:35:03;3.83;;;1.15;;
8480;SDS011;4277;51.354;6.740;2022-10-22T12:37:33;4.53;;;1.10;;
8480;SDS011;4277;51.354;6.740;2022-10-22T12:40:00;4.65;;;1.13;;
8480;SDS011;4277;51.354;6.740;2022-10-22T12:42:26;5.15;;;1.33;;
8480;SDS011;4277;51.354;6.740;2022-10-22T12:44:54;3.30;;;1.13;;
8480;SDS011;4277;51.354;6.740;2022-10-22T12:47:20;4.10;;;1.13;;
8480;SDS011;4277;51.354;6.740;2022-10-22T12:49:47;5.32;;;1.25;;
8480;SDS011;4277;51.354;6.740;2022-10-22T12:52:18;5.65;;;1.30;;
8480;SDS011;4277;51.354;6.740;2022-10-22T12:54:46;4.45;;;1.17;;
8480;SDS011;4277;51.354;6.740;2022-10-22T12:57:16;5.25;;;1.23;;
8480;SDS011;4277;51.354;6.740;2022-10-22T12:59:45;4.85;;;1.52;;
8480;SDS011;4277;51.354;6.740;2022-10-22T13:02:21;4.07;;;1.30;;
8480;SDS011;4277;51.354;6.740;2022-10-22T13:07:52;2.80;;;1.02;;
8480;SDS011;4277;51.354;6.740;2022-10-22T13:10:40;4.68;;;1.13;;
8480;SDS011;4277;51.354;6.740;2022-10-22T13:13:39;4.18;;;1.02;;
8480;SDS011;4277;51.354;6.740;2022-10-22T13:18:46;7.90;;;1.20;;
8480;SDS011;4277;51.354;6.740;2022-10-22T13:21:35;5.55;;;1.40;;
8480;SDS011;4277;51.354;6.740;2022-10-22T13:24:02;5.28;;;1.30;;
8480;SDS011;4277;51.354;6.740;2022-10-22T13:26:42;5.07;;;1.20;;
8480;SDS011;4277;51.354;6.740;2022-10-22T13:29:14;6.80;;;1.20;;
8480;SDS011;4277;51.354;6.740;2022-10-22T13:31:44;4.72;;;1.27;;
8480;SDS011;4277;51.354;6.740;2022-10-22T13:34:11;4.03;;;1.30;;
8480;SDS011;4277;51.354;6.740;2022-10-22T13:36:42;3.42;;;1.13;;
8480;SDS011;4277;51.354;6.740;2022-10-22T13:39:11;5.85;;;1.02;;
8480;SDS011;4277;51.354;6.740;2022-10-22T13:41:48;3.67;;;1.08;;
8480;SDS011;4277;51.354;6.740;2022-10-22T13:44:14;8.77;;;1.30;;
8480;SDS011;4277;51.354;6.740;2022-10-22T13:46:41;4.10;;;1.00;;
8480;SDS011;4277;51.354;6.740;2022-10-22T13:49:17;3.47;;;1.17;;
8480;SDS011;4277;51.354;6.740;2022-10-22T13:51:44;6.00;;;1.17;;
8480;SDS011;4277;51.354;6.740;2022-10-22T13:54:15;5.35;;;1.08;;
8480;SDS011;4277;51.354;6.740;2022-10-22T13:56:42;2.45;;;0.80;;
8480;SDS011;4277;51.354;6.740;2022-10-22T13:59:08;2.70;;;1.10;;
8480;SDS011;4277;51.354;6.740;2022-10-22T14:01:35;3.95;;;1.10;;
8480;SDS011;4277;51.354;6.740;2022-10-22T14:04:02;5.30;;;1.25;;
8480;SDS011;4277;51.354;6.740;2022-10-22T14:06:30;5.20;;;1.17;;
8480;SDS011;4277;51.354;6.740;2022-10-22T14:08:58;6.23;;;1.40;;
8480;SDS011;4277;51.354;6.740;2022-10-22T14:11:26;2.53;;;0.80;;
8480;SDS011;4277;51.354;6.740;2022-10-22T14:13:52;2.42;;;1.10;;
8480;SDS011;4277;51.354;6.740;2022-10-22T14:16:19;3.60;;;1.10;;
8480;SDS011;4277;51.354;6.740;2022-10-22T14:18:48;2.75;;;0.88;;
8480;SDS011;4277;51.354;6.740;2022-10-22T14:21:15;4.22;;;0.90;;
8480;SDS011;4277;51.354;6.740;2022-10-22T14:23:41;5.80;;;1.37;;
8480;SDS011;4277;51.354;6.740;2022-10-22T14:26:11;6.80;;;1.20;;
8480;SDS011;4277;51.354;6.740;2022-10-22T14:28:45;3.30;;;0.90;;
8480;SDS011;4277;51.354;6.740;2022-10-22T14:31:11;4.38;;;0.93;;
8480;SDS011;4277;51.354;6.740;2022-10-22T14:33:37;2.35;;;0.93;;
8480;SDS011;4277;51.354;6.740;2022-10-22T14:36:03;2.25;;;0.93;;
8480;SDS011;4277;51.354;6.740;2022-10-22T14:38:29;4.85;;;1.30;;
8480;SDS011;4277;51.354;6.740;2022-10-22T14:40:55;3.80;;;1.30;;
8480;SDS011;4277;51.354;6.740;2022-10-22T14:43:25;3.67;;;1.02;;
8480;SDS011;4277;51.354;6.740;2022-10-22T14:45:52;5.35;;;1.10;;
8480;SDS011;4277;51.354;6.740;2022-10-22T14:48:18;2.63;;;0.93;;
8480;SDS011;4277;51.354;6.740;2022-10-22T14:50:44;4.88;;;1.27;;
8480;SDS011;4277;51.354;6.740;2022-10-22T14:53:11;1.73;;;0.85;;
8480;SDS011;4277;51.354;6.740;2022-10-22T14:55:38;6.90;;;1.45;;
8480;SDS011;4277;51.354;6.740;2022-10-22T14:58:05;7.55;;;1.23;;
8480;SDS011;4277;51.354;6.740;2022-10-22T15:00:31;3.95;;;1.25;;
8480;SDS011;4277;51.354;6.740;2022-10-22T15:02:58;5.78;;;1.25;;
8480;SDS011;4277;51.354;6.740;2022-10-22T15:05:23;35.35;;;5.13;;
8480;SDS011;4277;51.354;6.740;2022-10-22T15:07:49;5.25;;;1.33;;
8480;SDS011;4277;51.354;6.740;2022-10-22T15:10:14;6.57;;;1.63;;
8480;SDS011;4277;51.354;6.740;2022-10-22T15:12:40;8.10;;;1.73;;
8480;SDS011;4277;51.354;6.740;2022-10-22T15:15:06;6.22;;;2.40;;
8480;SDS011;4277;51.354;6.740;2022-10-22T15:17:32;4.10;;;1.20;;
8480;SDS011;4277;51.354;6.740;2022-10-22T15:19:57;4.82;;;1.20;;
8480;SDS011;4277;51.354;6.740;2022-10-22T15:22:28;5.03;;;1.00;;
8480;SDS011;4277;51.354;6.740;2022-10-22T15:24:55;4.60;;;1.20;;
8480;SDS011;4277;51.354;6.740;2022-10-22T15:27:21;5.03;;;1.08;;
8480;SDS011;4277;51.354;6.740;2022-10-22T15:29:47;2.47;;;0.95;;
8480;SDS011;4277;51.354;6.740;2022-10-22T15:32:13;2.95;;;1.08;;
8480;SDS011;4277;51.354;6.740;2022-10-22T15:34:38;4.43;;;1.08;;
8480;SDS011;4277;51.354;6.740;2022-10-22T15:37:06;4.97;;;1.30;;
8480;SDS011;4277;51.354;6.740;2022-10-22T15:39:33;5.20;;;1.45;;
8480;SDS011;4277;51.354;6.740;2022-10-22T15:41:58;9.13;;;1.67;;
8480;SDS011;4277;51.354;6.740;2022-10-22T15:44:25;35.07;;;5.33;;
8480;SDS011;4277;51.354;6.740;2022-10-22T15:46:55;9.23;;;2.73;;
8480;SDS011;4277;51.354;6.740;2022-10-22T15:49:22;18.33;;;3.57;;
8480;SDS011;4277;51.354;6.740;2022-10-22T15:51:48;13.33;;;2.20;;
8480;SDS011;4277;51.354;6.740;2022-10-22T15:54:15;3.70;;;1.53;;
8480;SDS011;4277;51.354;6.740;2022-10-22T15:56:43;7.33;;;2.03;;
8480;SDS011;4277;51.354;6.740;2022-10-22T15:59:09;5.90;;;2.10;;
8480;SDS011;4277;51.354;6.740;2022-10-22T16:01:36;14.77;;;2.57;;
8480;SDS011;4277;51.354;6.740;2022-10-22T16:04:02;15.40;;;3.23;;
8480;SDS011;4277;51.354;6.740;2022-10-22T16:06:29;36.70;;;6.03;;
8480;SDS011;4277;51.354;6.740;2022-10-22T16:08:58;21.53;;;3.83;;
8480;SDS011;4277;51.354;6.740;2022-10-22T16:11:25;12.90;;;3.07;;
8480;SDS011;4277;51.354;6.740;2022-10-22T16:13:56;11.23;;;2.20;;
8480;SDS011;4277;51.354;6.740;2022-10-22T16:16:23;8.97;;;1.70;;
8480;SDS011;4277;51.354;6.740;2022-10-22T16:18:50;12.47;;;1.70;;
8480;SDS011;4277;51.354;6.740;2022-10-22T16:21:16;4.83;;;1.30;;
8480;SDS011;4277;51.354;6.740;2022-10-22T16:23:43;5.57;;;1.33;;
8480;SDS011;4277;51.354;6.740;2022-10-22T16:26:08;7.47;;;1.83;;
8480;SDS011;4277;51.354;6.740;2022-10-22T16:28:34;5.77;;;1.37;;
8480;SDS011;4277;51.354;6.740;2022-10-22T16:31:03;11.30;;;1.80;;
8480;SDS011;4277;51.354;6.740;2022-10-22T16:33:33;3.83;;;1.60;;
8480;SDS011;4277;51.354;6.740;2022-10-22T16:35:59;7.17;;;1.70;;
8480;SDS011;4277;51.354;6.740;2022-10-22T16:38:25;5.67;;;1.60;;
8480;SDS011;4277;51.354;6.740;2022-10-22T16:40:51;7.93;;;1.80;;
8480;SDS011;4277;51.354;6.740;2022-10-22T16:43:16;7.83;;;2.30;;
8480;SDS011;4277;51.354;6.740;2022-10-22T16:45:48;9.57;;;2.10;;
8480;SDS011;4277;51.354;6.740;2022-10-22T16:48:17;5.83;;;2.13;;
8480;SDS011;4277;51.354;6.740;2022-10-22T16:50:43;5.70;;;2.10;;
8480;SDS011;4277;51.354;6.740;2022-10-22T16:53:09;4.50;;;1.90;;
8480;SDS011;4277;51.354;6.740;2022-10-22T16:55:35;7.83;;;1.77;;
8480;SDS011;4277;51.354;6.740;2022-10-22T16:58:02;9.47;;;1.63;;
8480;SDS011;4277;51.354;6.740;2022-10-22T17:00:27;5.33;;;1.70;;